sensor_id;sensor_type;location;lat;lon;timestamp;P1;durP1;ratioP1;P2;durP2;ratioP2
9934;SDS011;5006;41.828;23.478;2022-08-19T00:00:44;8.40;;;6.78;;
9934;SDS011;5006;41.828;23.478;2022-08-19T00:01:50;8.95;;;6.45;;
9934;SDS011;5006;41.828;23.478;2022-08-19T00:02:57;6.90;;;6.30;;
9934;SDS011;5006;41.828;23.478;2022-08-19T00:04:03;8.00;;;6.30;;
9934;SDS011;5006;41.828;23.478;2022-08-19T00:05:11;7.68;;;6.88;;
9934;SDS011;5006;41.828;23.478;2022-08-19T00:06:17;6.80;;;6.20;;
9934;SDS011;5006;41.828;23.478;2022-08-19T00:07:23;6.68;;;5.97;;
9934;SDS011;5006;41.828;23.478;2022-08-19T00:08:28;7.55;;;6.85;;
9934;SDS011;5006;41.828;23.478;2022-08-19T00:09:33;8.68;;;6.43;;
9934;SDS011;5006;41.828;23.478;2022-08-19T00:10:38;6.93;;;6.28;;
9934;SDS011;5006;41.828;23.478;2022-08-19T00:11:44;7.05;;;6.35;;
9934;SDS011;5006;41.828;23.478;2022-08-19T00:12:49;7.45;;;6.30;;
9934;SDS011;5006;41.828;23.478;2022-08-19T00:13:57;7.57;;;6.55;;
9934;SDS011;5006;41.828;23.478;2022-08-19T00:15:03;8.60;;;6.30;;
9934;SDS011;5006;41.828;23.478;2022-08-19T00:16:10;7.78;;;6.28;;
9934;SDS011;5006;41.828;23.478;2022-08-19T00:17:14;7.20;;;6.25;;
9934;SDS011;5006;41.828;23.478;2022-08-19T00:18:21;7.32;;;6.65;;
9934;SDS011;5006;41.828;23.478;2022-08-19T00:19:26;9.23;;;7.10;;
9934;SDS011;5006;41.828;23.478;2022-08-19T00:20:32;7.82;;;6.65;;
9934;SDS011;5006;41.828;23.478;2022-08-19T00:21:36;8.55;;;7.30;;
9934;SDS011;5006;41.828;23.478;2022-08-19T00:22:43;8.00;;;6.53;;
9934;SDS011;5006;41.828;23.478;2022-08-19T00:23:49;7.75;;;6.35;;
9934;SDS011;5006;41.828;23.478;2022-08-19T00:24:55;7.10;;;6.40;;
9934;SDS011;5006;41.828;23.478;2022-08-19T00:26:01;7.18;;;6.47;;
9934;SDS011;5006;41.828;23.478;2022-08-19T00:27:06;9.93;;;6.90;;
9934;SDS011;5006;41.828;23.478;2022-08-19T00:28:12;7.30;;;6.60;;
9934;SDS011;5006;41.828;23.478;2022-08-19T00:29:19;8.13;;;6.30;;
9934;SDS011;5006;41.828;23.478;2022-08-19T00:30:25;6.97;;;6.38;;
9934;SDS011;5006;41.828;23.478;2022-08-19T00:31:31;7.35;;;6.65;;
9934;SDS011;5006;41.828;23.478;2022-08-19T00:32:38;7.45;;;6.78;;
9934;SDS011;5006;41.828;23.478;2022-08-19T00:33:43;7.07;;;6.35;;
9934;SDS011;5006;41.828;23.478;2022-08-19T00:34:49;7.00;;;6.32;;
9934;SDS011;5006;41.828;23.478;2022-08-19T00:35:56;7.22;;;6.53;;
9934;SDS011;5006;41.828;23.478;2022-08-19T00:37:03;6.75;;;6.05;;
9934;SDS011;5006;41.828;23.478;2022-08-19T00:38:08;7.78;;;6.80;;
9934;SDS011;5006;41.828;23.478;2022-08-19T00:39:14;7.65;;;6.90;;
9934;SDS011;5006;41.828;23.478;2022-08-19T00:40:20;7.38;;;6.47;;
9934;SDS011;5006;41.828;23.478;2022-08-19T00:41:27;6.78;;;6.18;;
9934;SDS011;5006;41.828;23.478;2022-08-19T00:42:32;6.47;;;5.95;;
9934;SDS011;5006;41.828;23.478;2022-08-19T00:43:38;7.30;;;6.60;;
9934;SDS011;5006;41.828;23.478;2022-08-19T00:44:46;7.72;;;7.00;;
9934;SDS011;5006;41.828;23.478;2022-08-19T00:45:52;8.55;;;7.65;;
9934;SDS011;5006;41.828;23.478;2022-08-19T00:46:57;7.68;;;6.60;;
9934;SDS011;5006;41.828;23.478;2022-08-19T00:48:04;8.90;;;7.28;;
9934;SDS011;5006;41.828;23.478;2022-08-19T00:49:10;7.38;;;6.65;;
9934;SDS011;5006;41.828;23.478;2022-08-19T00:50:21;7.85;;;7.15;;
9934;SDS011;5006;41.828;23.478;2022-08-19T00:51:27;7.55;;;6.85;;
9934;SDS011;5006;41.828;23.478;2022-08-19T00:52:35;8.20;;;7.43;;
9934;SDS011;5006;41.828;23.478;2022-08-19T00:53:45;9.45;;;8.55;;
9934;SDS011;5006;41.828;23.478;2022-08-19T00:54:50;11.95;;;7.95;;
9934;SDS011;5006;41.828;23.478;2022-08-19T00:55:58;10.38;;;8.35;;
9934;SDS011;5006;41.828;23.478;2022-08-19T00:57:06;8.85;;;7.95;;
9934;SDS011;5006;41.828;23.478;2022-08-19T00:58:15;9.30;;;8.40;;
9934;SDS011;5006;41.828;23.478;2022-08-19T00:59:26;8.80;;;8.10;;
9934;SDS011;5006;41.828;23.478;2022-08-19T01:00:35;9.20;;;8.00;;
9934;SDS011;5006;41.828;23.478;2022-08-19T01:01:42;9.20;;;8.27;;
9934;SDS011;5006;41.828;23.478;2022-08-19T01:02:49;8.27;;;7.47;;
9934;SDS011;5006;41.828;23.478;2022-08-19T01:03:54;9.30;;;7.70;;
9934;SDS011;5006;41.828;23.478;2022-08-19T01:05:00;8.35;;;7.63;;
9934;SDS011;5006;41.828;23.478;2022-08-19T01:06:08;8.70;;;7.80;;
9934;SDS011;5006;41.828;23.478;2022-08-19T01:07:14;8.00;;;7.30;;
9934;SDS011;5006;41.828;23.478;2022-08-19T01:08:19;8.77;;;7.82;;
9934;SDS011;5006;41.828;23.478;2022-08-19T01:09:26;8.30;;;7.50;;
9934;SDS011;5006;41.828;23.478;2022-08-19T01:10:32;8.88;;;7.35;;
9934;SDS011;5006;41.828;23.478;2022-08-19T01:11:42;9.23;;;7.47;;
9934;SDS011;5006;41.828;23.478;2022-08-19T01:12:49;8.32;;;7.53;;
9934;SDS011;5006;41.828;23.478;2022-08-19T01:13:56;8.13;;;7.25;;
9934;SDS011;5006;41.828;23.478;2022-08-19T01:15:01;8.68;;;7.28;;
9934;SDS011;5006;41.828;23.478;2022-08-19T01:16:09;8.68;;;7.85;;
9934;SDS011;5006;41.828;23.478;2022-08-19T01:17:16;7.78;;;7.07;;
9934;SDS011;5006;41.828;23.478;2022-08-19T01:18:22;8.18;;;7.47;;
9934;SDS011;5006;41.828;23.478;2022-08-19T01:19:30;9.23;;;7.43;;
9934;SDS011;5006;41.828;23.478;2022-08-19T01:20:41;8.48;;;7.68;;
9934;SDS011;5006;41.828;23.478;2022-08-19T01:21:50;8.45;;;7.57;;
9934;SDS011;5006;41.828;23.478;2022-08-19T01:23:00;9.90;;;7.63;;
9934;SDS011;5006;41.828;23.478;2022-08-19T01:24:06;8.70;;;7.80;;
9934;SDS011;5006;41.828;23.478;2022-08-19T01:25:12;8.25;;;7.53;;
9934;SDS011;5006;41.828;23.478;2022-08-19T01:26:20;8.82;;;7.93;;
9934;SDS011;5006;41.828;23.478;2022-08-19T01:27:35;8.80;;;8.10;;
9934;SDS011;5006;41.828;23.478;2022-08-19T01:28:43;8.90;;;7.72;;
9934;SDS011;5006;41.828;23.478;2022-08-19T01:29:51;9.00;;;8.20;;
9934;SDS011;5006;41.828;23.478;2022-08-19T01:30:57;8.77;;;7.97;;
9934;SDS011;5006;41.828;23.478;2022-08-19T01:32:03;11.15;;;8.07;;
9934;SDS011;5006;41.828;23.478;2022-08-19T01:33:09;10.85;;;9.50;;
9934;SDS011;5006;41.828;23.478;2022-08-19T01:34:14;9.35;;;8.55;;
9934;SDS011;5006;41.828;23.478;2022-08-19T01:35:19;9.10;;;8.30;;
9934;SDS011;5006;41.828;23.478;2022-08-19T01:36:28;9.00;;;8.20;;
9934;SDS011;5006;41.828;23.478;2022-08-19T01:37:41;8.68;;;7.78;;
9934;SDS011;5006;41.828;23.478;2022-08-19T01:38:50;8.55;;;7.75;;
9934;SDS011;5006;41.828;23.478;2022-08-19T01:39:55;9.35;;;7.80;;
9934;SDS011;5006;41.828;23.478;2022-08-19T01:41:00;8.27;;;7.55;;
9934;SDS011;5006;41.828;23.478;2022-08-19T01:42:07;8.18;;;7.45;;
9934;SDS011;5006;41.828;23.478;2022-08-19T01:43:15;8.70;;;7.82;;
9934;SDS011;5006;41.828;23.478;2022-08-19T01:44:23;8.55;;;7.68;;
9934;SDS011;5006;41.828;23.478;2022-08-19T01:45:28;8.13;;;7.32;;
9934;SDS011;5006;41.828;23.478;2022-08-19T01:46:37;8.55;;;7.82;;
9934;SDS011;5006;41.828;23.478;2022-08-19T01:47:42;8.70;;;7.80;;
9934;SDS011;5006;41.828;23.478;2022-08-19T01:48:48;8.40;;;7.60;;
9934;SDS011;5006;41.828;23.478;2022-08-19T01:49:53;8.55;;;7.70;;
9934;SDS011;5006;41.828;23.478;2022-08-19T01:50:59;8.75;;;7.80;;
9934;SDS011;5006;41.828;23.478;2022-08-19T01:52:06;8.25;;;7.55;;
9934;SDS011;5006;41.828;23.478;2022-08-19T01:53:11;8.38;;;7.57;;
9934;SDS011;5006;41.828;23.478;2022-08-19T01:54:19;7.55;;;6.95;;
9934;SDS011;5006;41.828;23.478;2022-08-19T01:55:25;8.50;;;7.60;;
9934;SDS011;5006;41.828;23.478;2022-08-19T01:56:31;7.88;;;7.18;;
9934;SDS011;5006;41.828;23.478;2022-08-19T01:57:37;8.63;;;7.55;;
9934;SDS011;5006;41.828;23.478;2022-08-19T01:58:45;7.65;;;7.03;;
9934;SDS011;5006;41.828;23.478;2022-08-19T01:59:54;7.43;;;6.78;;
9934;SDS011;5006;41.828;23.478;2022-08-19T02:01:01;8.32;;;7.60;;
9934;SDS011;5006;41.828;23.478;2022-08-19T02:02:06;7.93;;;7.22;;
9934;SDS011;5006;41.828;23.478;2022-08-19T02:03:12;7.90;;;7.10;;
9934;SDS011;5006;41.828;23.478;2022-08-19T02:04:18;9.02;;;7.13;;
9934;SDS011;5006;41.828;23.478;2022-08-19T02:05:23;8.20;;;7.40;;
9934;SDS011;5006;41.828;23.478;2022-08-19T02:06:29;7.85;;;7.15;;
9934;SDS011;5006;41.828;23.478;2022-08-19T02:07:34;7.68;;;6.90;;
9934;SDS011;5006;41.828;23.478;2022-08-19T02:08:41;8.23;;;7.43;;
9934;SDS011;5006;41.828;23.478;2022-08-19T02:09:47;7.28;;;6.68;;
9934;SDS011;5006;41.828;23.478;2022-08-19T02:10:53;8.35;;;7.57;;
9934;SDS011;5006;41.828;23.478;2022-08-19T02:11:58;8.05;;;7.35;;
9934;SDS011;5006;41.828;23.478;2022-08-19T02:13:03;7.60;;;6.90;;
9934;SDS011;5006;41.828;23.478;2022-08-19T02:14:08;7.88;;;7.07;;
9934;SDS011;5006;41.828;23.478;2022-08-19T02:15:14;8.52;;;7.38;;
9934;SDS011;5006;41.828;23.478;2022-08-19T02:16:19;7.78;;;7.10;;
9934;SDS011;5006;41.828;23.478;2022-08-19T02:17:25;7.88;;;7.10;;
9934;SDS011;5006;41.828;23.478;2022-08-19T02:18:30;8.48;;;7.22;;
9934;SDS011;5006;41.828;23.478;2022-08-19T02:19:37;7.57;;;6.88;;
9934;SDS011;5006;41.828;23.478;2022-08-19T02:20:42;7.88;;;7.10;;
9934;SDS011;5006;41.828;23.478;2022-08-19T02:21:50;11.23;;;7.38;;
9934;SDS011;5006;41.828;23.478;2022-08-19T02:22:55;8.02;;;7.22;;
9934;SDS011;5006;41.828;23.478;2022-08-19T02:24:01;8.00;;;7.20;;
9934;SDS011;5006;41.828;23.478;2022-08-19T02:25:09;8.52;;;7.72;;
9934;SDS011;5006;41.828;23.478;2022-08-19T02:26:15;8.07;;;7.38;;
9934;SDS011;5006;41.828;23.478;2022-08-19T02:27:20;8.00;;;7.20;;
9934;SDS011;5006;41.828;23.478;2022-08-19T02:28:27;9.02;;;6.70;;
9934;SDS011;5006;41.828;23.478;2022-08-19T02:29:31;8.55;;;7.68;;
9934;SDS011;5006;41.828;23.478;2022-08-19T02:30:37;7.88;;;7.18;;
9934;SDS011;5006;41.828;23.478;2022-08-19T02:31:42;8.55;;;7.40;;
9934;SDS011;5006;41.828;23.478;2022-08-19T02:32:48;8.65;;;7.78;;
9934;SDS011;5006;41.828;23.478;2022-08-19T02:33:53;8.23;;;7.43;;
9934;SDS011;5006;41.828;23.478;2022-08-19T02:35:00;8.02;;;7.32;;
9934;SDS011;5006;41.828;23.478;2022-08-19T02:36:06;8.70;;;7.90;;
9934;SDS011;5006;41.828;23.478;2022-08-19T02:37:14;8.98;;;8.07;;
9934;SDS011;5006;41.828;23.478;2022-08-19T02:38:34;11.05;;;7.68;;
9934;SDS011;5006;41.828;23.478;2022-08-19T02:39:40;11.30;;;7.70;;
9934;SDS011;5006;41.828;23.478;2022-08-19T02:40:49;8.20;;;7.47;;
9934;SDS011;5006;41.828;23.478;2022-08-19T02:41:56;7.85;;;7.25;;
9934;SDS011;5006;41.828;23.478;2022-08-19T02:43:04;8.55;;;7.85;;
9934;SDS011;5006;41.828;23.478;2022-08-19T02:44:11;8.90;;;8.10;;
9934;SDS011;5006;41.828;23.478;2022-08-19T02:45:17;8.13;;;7.32;;
9934;SDS011;5006;41.828;23.478;2022-08-19T02:46:23;8.45;;;7.60;;
9934;SDS011;5006;41.828;23.478;2022-08-19T02:47:31;8.20;;;7.40;;
9934;SDS011;5006;41.828;23.478;2022-08-19T02:48:36;9.30;;;8.50;;
9934;SDS011;5006;41.828;23.478;2022-08-19T02:49:42;8.85;;;8.05;;
9934;SDS011;5006;41.828;23.478;2022-08-19T02:50:46;9.02;;;8.13;;
9934;SDS011;5006;41.828;23.478;2022-08-19T02:51:55;8.60;;;7.80;;
9934;SDS011;5006;41.828;23.478;2022-08-19T02:53:00;8.95;;;8.15;;
9934;SDS011;5006;41.828;23.478;2022-08-19T02:54:07;10.55;;;7.82;;
9934;SDS011;5006;41.828;23.478;2022-08-19T02:55:13;8.43;;;7.60;;
9934;SDS011;5006;41.828;23.478;2022-08-19T02:56:20;9.15;;;8.27;;
9934;SDS011;5006;41.828;23.478;2022-08-19T02:57:26;8.73;;;7.93;;
9934;SDS011;5006;41.828;23.478;2022-08-19T02:58:32;12.38;;;8.70;;
9934;SDS011;5006;41.828;23.478;2022-08-19T02:59:36;9.32;;;8.52;;
9934;SDS011;5006;41.828;23.478;2022-08-19T03:00:42;8.90;;;8.00;;
9934;SDS011;5006;41.828;23.478;2022-08-19T03:01:49;9.57;;;7.90;;
9934;SDS011;5006;41.828;23.478;2022-08-19T03:02:54;8.70;;;7.82;;
9934;SDS011;5006;41.828;23.478;2022-08-19T03:04:01;9.18;;;8.18;;
9934;SDS011;5006;41.828;23.478;2022-08-19T03:05:09;9.10;;;8.30;;
9934;SDS011;5006;41.828;23.478;2022-08-19T03:06:15;8.70;;;7.90;;
9934;SDS011;5006;41.828;23.478;2022-08-19T03:07:22;9.60;;;8.60;;
9934;SDS011;5006;41.828;23.478;2022-08-19T03:08:27;8.82;;;7.90;;
9934;SDS011;5006;41.828;23.478;2022-08-19T03:09:35;8.73;;;7.93;;
9934;SDS011;5006;41.828;23.478;2022-08-19T03:10:41;9.05;;;8.13;;
9934;SDS011;5006;41.828;23.478;2022-08-19T03:11:50;7.60;;;7.00;;
9934;SDS011;5006;41.828;23.478;2022-08-19T03:12:55;8.95;;;7.70;;
9934;SDS011;5006;41.828;23.478;2022-08-19T03:14:01;7.80;;;7.10;;
9934;SDS011;5006;41.828;23.478;2022-08-19T03:15:07;8.00;;;7.20;;
9934;SDS011;5006;41.828;23.478;2022-08-19T03:16:13;8.77;;;7.85;;
9934;SDS011;5006;41.828;23.478;2022-08-19T03:17:18;7.20;;;6.50;;
9934;SDS011;5006;41.828;23.478;2022-08-19T03:18:24;8.35;;;7.30;;
9934;SDS011;5006;41.828;23.478;2022-08-19T03:19:30;8.10;;;7.20;;
9934;SDS011;5006;41.828;23.478;2022-08-19T03:20:39;7.45;;;6.85;;
9934;SDS011;5006;41.828;23.478;2022-08-19T03:21:46;8.32;;;7.53;;
9934;SDS011;5006;41.828;23.478;2022-08-19T03:22:52;8.00;;;7.32;;
9934;SDS011;5006;41.828;23.478;2022-08-19T03:23:57;9.30;;;8.00;;
9934;SDS011;5006;41.828;23.478;2022-08-19T03:25:05;8.48;;;7.68;;
9934;SDS011;5006;41.828;23.478;2022-08-19T03:26:10;8.57;;;7.45;;
9934;SDS011;5006;41.828;23.478;2022-08-19T03:27:17;8.07;;;7.38;;
9934;SDS011;5006;41.828;23.478;2022-08-19T03:28:22;8.50;;;7.70;;
9934;SDS011;5006;41.828;23.478;2022-08-19T03:29:28;8.40;;;7.40;;
9934;SDS011;5006;41.828;23.478;2022-08-19T03:30:35;8.35;;;7.65;;
9934;SDS011;5006;41.828;23.478;2022-08-19T03:31:42;7.57;;;6.90;;
9934;SDS011;5006;41.828;23.478;2022-08-19T03:32:48;7.80;;;7.00;;
9934;SDS011;5006;41.828;23.478;2022-08-19T03:33:53;8.48;;;7.68;;
9934;SDS011;5006;41.828;23.478;2022-08-19T03:34:58;9.88;;;7.38;;
9934;SDS011;5006;41.828;23.478;2022-08-19T03:36:07;7.60;;;7.00;;
9934;SDS011;5006;41.828;23.478;2022-08-19T03:37:15;8.10;;;7.07;;
9934;SDS011;5006;41.828;23.478;2022-08-19T03:38:19;7.90;;;7.30;;
9934;SDS011;5006;41.828;23.478;2022-08-19T03:39:25;10.07;;;7.70;;
9934;SDS011;5006;41.828;23.478;2022-08-19T03:40:30;8.50;;;7.43;;
9934;SDS011;5006;41.828;23.478;2022-08-19T03:41:37;8.15;;;7.45;;
9934;SDS011;5006;41.828;23.478;2022-08-19T03:42:44;8.30;;;7.10;;
9934;SDS011;5006;41.828;23.478;2022-08-19T03:43:50;8.73;;;7.93;;
9934;SDS011;5006;41.828;23.478;2022-08-19T03:44:57;8.65;;;7.20;;
9934;SDS011;5006;41.828;23.478;2022-08-19T03:46:04;8.18;;;7.38;;
9934;SDS011;5006;41.828;23.478;2022-08-19T03:47:10;7.53;;;6.82;;
9934;SDS011;5006;41.828;23.478;2022-08-19T03:48:20;8.38;;;7.13;;
9934;SDS011;5006;41.828;23.478;2022-08-19T03:49:27;8.38;;;7.28;;
9934;SDS011;5006;41.828;23.478;2022-08-19T03:50:37;7.40;;;6.70;;
9934;SDS011;5006;41.828;23.478;2022-08-19T03:51:43;7.75;;;7.07;;
9934;SDS011;5006;41.828;23.478;2022-08-19T03:52:49;7.88;;;7.15;;
9934;SDS011;5006;41.828;23.478;2022-08-19T03:53:55;10.32;;;7.47;;
9934;SDS011;5006;41.828;23.478;2022-08-19T03:55:02;8.55;;;7.20;;
9934;SDS011;5006;41.828;23.478;2022-08-19T03:56:07;7.82;;;7.13;;
9934;SDS011;5006;41.828;23.478;2022-08-19T03:57:15;8.15;;;7.45;;
9934;SDS011;5006;41.828;23.478;2022-08-19T03:58:22;8.35;;;7.57;;
9934;SDS011;5006;41.828;23.478;2022-08-19T03:59:27;7.75;;;7.15;;
9934;SDS011;5006;41.828;23.478;2022-08-19T04:00:35;8.00;;;7.30;;
9934;SDS011;5006;41.828;23.478;2022-08-19T04:01:41;7.90;;;7.20;;
9934;SDS011;5006;41.828;23.478;2022-08-19T04:02:46;8.25;;;7.45;;
9934;SDS011;5006;41.828;23.478;2022-08-19T04:03:52;7.70;;;6.90;;
9934;SDS011;5006;41.828;23.478;2022-08-19T04:04:57;7.85;;;7.00;;
9934;SDS011;5006;41.828;23.478;2022-08-19T04:06:09;7.95;;;7.22;;
9934;SDS011;5006;41.828;23.478;2022-08-19T04:07:15;7.50;;;6.85;;
9934;SDS011;5006;41.828;23.478;2022-08-19T04:08:21;8.15;;;7.35;;
9934;SDS011;5006;41.828;23.478;2022-08-19T04:09:26;8.20;;;7.40;;
9934;SDS011;5006;41.828;23.478;2022-08-19T04:10:34;7.90;;;7.20;;
9934;SDS011;5006;41.828;23.478;2022-08-19T04:11:40;7.82;;;7.13;;
9934;SDS011;5006;41.828;23.478;2022-08-19T04:12:47;7.40;;;6.70;;
9934;SDS011;5006;41.828;23.478;2022-08-19T04:13:54;7.40;;;6.80;;
9934;SDS011;5006;41.828;23.478;2022-08-19T04:15:00;8.93;;;7.05;;
9934;SDS011;5006;41.828;23.478;2022-08-19T04:16:06;8.18;;;6.88;;
9934;SDS011;5006;41.828;23.478;2022-08-19T04:17:13;8.20;;;7.47;;
9934;SDS011;5006;41.828;23.478;2022-08-19T04:18:18;7.97;;;7.32;;
9934;SDS011;5006;41.828;23.478;2022-08-19T04:19:24;7.80;;;7.07;;
9934;SDS011;5006;41.828;23.478;2022-08-19T04:20:31;8.00;;;7.30;;
9934;SDS011;5006;41.828;23.478;2022-08-19T04:21:36;7.35;;;6.75;;
9934;SDS011;5006;41.828;23.478;2022-08-19T04:22:42;7.93;;;7.13;;
9934;SDS011;5006;41.828;23.478;2022-08-19T04:23:46;8.02;;;7.32;;
9934;SDS011;5006;41.828;23.478;2022-08-19T04:24:53;7.47;;;6.78;;
9934;SDS011;5006;41.828;23.478;2022-08-19T04:25:58;7.80;;;7.10;;
9934;SDS011;5006;41.828;23.478;2022-08-19T04:27:04;8.52;;;7.63;;
9934;SDS011;5006;41.828;23.478;2022-08-19T04:28:11;7.50;;;6.90;;
9934;SDS011;5006;41.828;23.478;2022-08-19T04:29:18;7.95;;;7.13;;
9934;SDS011;5006;41.828;23.478;2022-08-19T04:30:28;8.38;;;7.40;;
9934;SDS011;5006;41.828;23.478;2022-08-19T04:31:33;8.25;;;7.43;;
9934;SDS011;5006;41.828;23.478;2022-08-19T04:32:40;10.55;;;7.82;;
9934;SDS011;5006;41.828;23.478;2022-08-19T04:33:48;7.90;;;7.20;;
9934;SDS011;5006;41.828;23.478;2022-08-19T04:34:54;7.85;;;7.03;;
9934;SDS011;5006;41.828;23.478;2022-08-19T04:36:00;9.10;;;7.80;;
9934;SDS011;5006;41.828;23.478;2022-08-19T04:37:06;8.60;;;7.65;;
9934;SDS011;5006;41.828;23.478;2022-08-19T04:38:16;9.63;;;8.20;;
9934;SDS011;5006;41.828;23.478;2022-08-19T04:39:23;10.13;;;7.82;;
9934;SDS011;5006;41.828;23.478;2022-08-19T04:40:51;7.95;;;7.18;;
9934;SDS011;5006;41.828;23.478;2022-08-19T04:42:14;7.80;;;7.10;;
9934;SDS011;5006;41.828;23.478;2022-08-19T04:43:39;7.78;;;7.05;;
9934;SDS011;5006;41.828;23.478;2022-08-19T04:44:45;8.57;;;7.28;;
9934;SDS011;5006;41.828;23.478;2022-08-19T04:45:51;8.02;;;7.22;;
9934;SDS011;5006;41.828;23.478;2022-08-19T04:46:56;7.65;;;6.95;;
9934;SDS011;5006;41.828;23.478;2022-08-19T04:48:03;6.70;;;6.10;;
9934;SDS011;5006;41.828;23.478;2022-08-19T04:49:08;7.80;;;7.00;;
9934;SDS011;5006;41.828;23.478;2022-08-19T04:50:15;7.90;;;7.05;;
9934;SDS011;5006;41.828;23.478;2022-08-19T04:51:23;8.23;;;6.90;;
9934;SDS011;5006;41.828;23.478;2022-08-19T04:52:29;8.48;;;7.40;;
9934;SDS011;5006;41.828;23.478;2022-08-19T04:53:35;8.10;;;7.30;;
9934;SDS011;5006;41.828;23.478;2022-08-19T04:54:42;8.95;;;7.68;;
9934;SDS011;5006;41.828;23.478;2022-08-19T04:55:47;9.38;;;8.43;;
9934;SDS011;5006;41.828;23.478;2022-08-19T04:56:53;8.38;;;7.57;;
9934;SDS011;5006;41.828;23.478;2022-08-19T04:57:58;11.85;;;9.30;;
9934;SDS011;5006;41.828;23.478;2022-08-19T04:59:04;13.52;;;10.70;;
9934;SDS011;5006;41.828;23.478;2022-08-19T05:00:10;13.20;;;11.75;;
9934;SDS011;5006;41.828;23.478;2022-08-19T05:01:18;14.18;;;12.40;;
9934;SDS011;5006;41.828;23.478;2022-08-19T05:02:24;15.82;;;14.20;;
9934;SDS011;5006;41.828;23.478;2022-08-19T05:03:30;16.83;;;14.63;;
9934;SDS011;5006;41.828;23.478;2022-08-19T05:04:38;15.43;;;13.05;;
9934;SDS011;5006;41.828;23.478;2022-08-19T05:05:44;15.95;;;14.43;;
9934;SDS011;5006;41.828;23.478;2022-08-19T05:06:52;15.55;;;14.02;;
9934;SDS011;5006;41.828;23.478;2022-08-19T05:07:58;18.17;;;14.55;;
9934;SDS011;5006;41.828;23.478;2022-08-19T05:09:04;18.13;;;14.50;;
9934;SDS011;5006;41.828;23.478;2022-08-19T05:10:10;16.52;;;14.88;;
9934;SDS011;5006;41.828;23.478;2022-08-19T05:11:18;16.70;;;14.77;;
9934;SDS011;5006;41.828;23.478;2022-08-19T05:12:42;17.98;;;15.75;;
9934;SDS011;5006;41.828;23.478;2022-08-19T05:13:47;19.00;;;15.15;;
9934;SDS011;5006;41.828;23.478;2022-08-19T05:14:53;19.92;;;14.63;;
9934;SDS011;5006;41.828;23.478;2022-08-19T05:15:59;16.55;;;14.88;;
9934;SDS011;5006;41.828;23.478;2022-08-19T05:17:05;19.70;;;16.45;;
9934;SDS011;5006;41.828;23.478;2022-08-19T05:18:11;17.80;;;16.00;;
9934;SDS011;5006;41.828;23.478;2022-08-19T05:19:43;16.13;;;14.40;;
9934;SDS011;5006;41.828;23.478;2022-08-19T05:21:06;13.52;;;12.13;;
9934;SDS011;5006;41.828;23.478;2022-08-19T05:22:30;14.45;;;12.10;;
9934;SDS011;5006;41.828;23.478;2022-08-19T05:23:39;12.60;;;10.88;;
9934;SDS011;5006;41.828;23.478;2022-08-19T05:24:45;13.30;;;11.95;;
9934;SDS011;5006;41.828;23.478;2022-08-19T05:25:51;14.82;;;11.88;;
9934;SDS011;5006;41.828;23.478;2022-08-19T05:26:56;14.30;;;10.50;;
9934;SDS011;5006;41.828;23.478;2022-08-19T05:28:02;12.48;;;10.50;;
9934;SDS011;5006;41.828;23.478;2022-08-19T05:29:08;11.97;;;9.43;;
9934;SDS011;5006;41.828;23.478;2022-08-19T05:30:15;11.23;;;10.00;;
9934;SDS011;5006;41.828;23.478;2022-08-19T05:31:22;11.07;;;9.53;;
9934;SDS011;5006;41.828;23.478;2022-08-19T05:32:28;10.93;;;9.93;;
9934;SDS011;5006;41.828;23.478;2022-08-19T05:33:33;12.90;;;10.30;;
9934;SDS011;5006;41.828;23.478;2022-08-19T05:34:38;10.50;;;9.43;;
9934;SDS011;5006;41.828;23.478;2022-08-19T05:35:44;10.40;;;9.30;;
9934;SDS011;5006;41.828;23.478;2022-08-19T05:36:50;10.40;;;9.40;;
9934;SDS011;5006;41.828;23.478;2022-08-19T05:38:01;9.97;;;9.00;;
9934;SDS011;5006;41.828;23.478;2022-08-19T05:39:08;10.30;;;9.30;;
9934;SDS011;5006;41.828;23.478;2022-08-19T05:40:16;11.83;;;9.47;;
9934;SDS011;5006;41.828;23.478;2022-08-19T05:41:22;10.40;;;9.10;;
9934;SDS011;5006;41.828;23.478;2022-08-19T05:42:34;10.07;;;9.07;;
9934;SDS011;5006;41.828;23.478;2022-08-19T05:43:40;11.57;;;9.43;;
9934;SDS011;5006;41.828;23.478;2022-08-19T05:44:45;10.63;;;9.30;;
9934;SDS011;5006;41.828;23.478;2022-08-19T05:45:52;9.73;;;8.73;;
9934;SDS011;5006;41.828;23.478;2022-08-19T05:46:59;13.17;;;10.03;;
9934;SDS011;5006;41.828;23.478;2022-08-19T05:48:06;10.03;;;9.03;;
9934;SDS011;5006;41.828;23.478;2022-08-19T05:49:10;9.93;;;8.80;;
9934;SDS011;5006;41.828;23.478;2022-08-19T05:50:16;10.17;;;9.13;;
9934;SDS011;5006;41.828;23.478;2022-08-19T05:51:22;10.47;;;8.77;;
9934;SDS011;5006;41.828;23.478;2022-08-19T05:52:28;9.77;;;8.80;;
9934;SDS011;5006;41.828;23.478;2022-08-19T05:53:34;9.83;;;8.90;;
9934;SDS011;5006;41.828;23.478;2022-08-19T05:54:39;10.73;;;9.20;;
9934;SDS011;5006;41.828;23.478;2022-08-19T05:55:46;11.70;;;10.10;;
9934;SDS011;5006;41.828;23.478;2022-08-19T05:56:51;13.13;;;9.40;;
9934;SDS011;5006;41.828;23.478;2022-08-19T05:57:58;11.90;;;10.70;;
9934;SDS011;5006;41.828;23.478;2022-08-19T05:59:06;11.37;;;9.90;;
9934;SDS011;5006;41.828;23.478;2022-08-19T06:00:15;10.13;;;9.23;;
9934;SDS011;5006;41.828;23.478;2022-08-19T06:01:21;10.40;;;8.87;;
9934;SDS011;5006;41.828;23.478;2022-08-19T06:02:27;11.03;;;9.90;;
9934;SDS011;5006;41.828;23.478;2022-08-19T06:03:35;11.20;;;9.57;;
9934;SDS011;5006;41.828;23.478;2022-08-19T06:04:41;10.80;;;9.80;;
9934;SDS011;5006;41.828;23.478;2022-08-19T06:05:47;11.00;;;9.93;;
9934;SDS011;5006;41.828;23.478;2022-08-19T06:06:53;10.87;;;9.73;;
9934;SDS011;5006;41.828;23.478;2022-08-19T06:07:59;12.67;;;9.60;;
9934;SDS011;5006;41.828;23.478;2022-08-19T06:09:04;10.37;;;9.37;;
9934;SDS011;5006;41.828;23.478;2022-08-19T06:10:12;10.53;;;9.50;;
9934;SDS011;5006;41.828;23.478;2022-08-19T06:11:19;11.20;;;10.00;;
9934;SDS011;5006;41.828;23.478;2022-08-19T06:12:26;10.90;;;9.90;;
9934;SDS011;5006;41.828;23.478;2022-08-19T06:13:36;10.67;;;9.67;;
9934;SDS011;5006;41.828;23.478;2022-08-19T06:14:42;11.13;;;9.57;;
9934;SDS011;5006;41.828;23.478;2022-08-19T06:15:48;11.43;;;10.40;;
9934;SDS011;5006;41.828;23.478;2022-08-19T06:16:53;11.43;;;10.23;;
9934;SDS011;5006;41.828;23.478;2022-08-19T06:18:01;12.43;;;9.93;;
9934;SDS011;5006;41.828;23.478;2022-08-19T06:19:09;11.83;;;10.60;;
9934;SDS011;5006;41.828;23.478;2022-08-19T06:20:15;12.93;;;11.70;;
9934;SDS011;5006;41.828;23.478;2022-08-19T06:21:23;14.00;;;11.23;;
9934;SDS011;5006;41.828;23.478;2022-08-19T06:22:29;14.10;;;10.77;;
9934;SDS011;5006;41.828;23.478;2022-08-19T06:23:35;13.00;;;11.80;;
9934;SDS011;5006;41.828;23.478;2022-08-19T06:24:40;13.43;;;11.07;;
9934;SDS011;5006;41.828;23.478;2022-08-19T06:25:45;12.63;;;11.33;;
9934;SDS011;5006;41.828;23.478;2022-08-19T06:26:51;13.60;;;12.30;;
9934;SDS011;5006;41.828;23.478;2022-08-19T06:27:58;13.10;;;11.80;;
9934;SDS011;5006;41.828;23.478;2022-08-19T06:29:04;14.07;;;11.70;;
9934;SDS011;5006;41.828;23.478;2022-08-19T06:30:11;16.17;;;12.37;;
9934;SDS011;5006;41.828;23.478;2022-08-19T06:31:17;13.73;;;12.43;;
9934;SDS011;5006;41.828;23.478;2022-08-19T06:32:30;14.23;;;12.83;;
9934;SDS011;5006;41.828;23.478;2022-08-19T06:33:37;12.60;;;11.30;;
9934;SDS011;5006;41.828;23.478;2022-08-19T06:34:43;15.57;;;11.90;;
9934;SDS011;5006;41.828;23.478;2022-08-19T06:35:48;13.23;;;12.00;;
9934;SDS011;5006;41.828;23.478;2022-08-19T06:36:54;12.43;;;11.13;;
9934;SDS011;5006;41.828;23.478;2022-08-19T06:38:00;12.73;;;11.50;;
9934;SDS011;5006;41.828;23.478;2022-08-19T06:39:08;14.53;;;11.93;;
9934;SDS011;5006;41.828;23.478;2022-08-19T06:40:17;12.73;;;11.53;;
9934;SDS011;5006;41.828;23.478;2022-08-19T06:41:21;14.47;;;12.23;;
9934;SDS011;5006;41.828;23.478;2022-08-19T06:42:27;13.40;;;12.10;;
9934;SDS011;5006;41.828;23.478;2022-08-19T06:43:34;13.27;;;11.90;;
9934;SDS011;5006;41.828;23.478;2022-08-19T06:44:41;14.47;;;12.80;;
9934;SDS011;5006;41.828;23.478;2022-08-19T06:45:47;14.67;;;12.23;;
9934;SDS011;5006;41.828;23.478;2022-08-19T06:46:56;12.93;;;11.63;;